createdAt,value
2023-03-08T00:01:19.085Z,-2.30
2023-03-08T00:03:46.927Z,-2.30
2023-03-08T00:06:15.910Z,-2.30
2023-03-08T00:08:43.744Z,-2.40
2023-03-08T00:11:12.561Z,-2.40
2023-03-08T00:13:40.905Z,-2.30
2023-03-08T00:16:11.014Z,-2.40
2023-03-08T00:18:38.466Z,-2.40
2023-03-08T00:21:11.765Z,-2.40
2023-03-08T00:23:39.461Z,-2.40
2023-03-08T00:26:07.026Z,-2.40
2023-03-08T00:28:34.287Z,-2.40
2023-03-08T00:31:04.720Z,-2.40
2023-03-08T00:33:34.218Z,-2.50
2023-03-08T00:36:07.464Z,-2.40
2023-03-08T00:38:36.400Z,-2.40
2023-03-08T00:41:04.384Z,-2.50
2023-03-08T00:43:32.456Z,-2.50
2023-03-08T00:45:59.631Z,-2.50
2023-03-08T00:48:27.517Z,-2.50
2023-03-08T00:50:54.694Z,-2.50
2023-03-08T00:53:22.092Z,-2.50
2023-03-08T00:55:50.879Z,-2.50
2023-03-08T00:58:18.612Z,-2.50
2023-03-08T01:00:46.225Z,-2.50
2023-03-08T01:03:13.691Z,-2.50
2023-03-08T01:05:47.052Z,-2.50
2023-03-08T01:08:15.461Z,-2.50
2023-03-08T01:10:58.028Z,-2.60
2023-03-08T01:13:27.562Z,-2.60
2023-03-08T01:15:55.099Z,-2.60
2023-03-08T01:18:22.321Z,-2.60
2023-03-08T01:21:00.623Z,-2.60
2023-03-08T01:23:28.560Z,-2.50
2023-03-08T01:26:07.040Z,-2.50
2023-03-08T01:28:35.574Z,-2.50
2023-03-08T01:31:05.603Z,-2.60
2023-03-08T01:33:33.329Z,-2.60
2023-03-08T01:36:02.708Z,-2.60
2023-03-08T01:38:30.139Z,-2.60
2023-03-08T01:41:02.049Z,-2.60
2023-03-08T01:43:30.582Z,-2.70
2023-03-08T01:46:24.561Z,-2.60
2023-03-08T01:49:11.686Z,-2.70
2023-03-08T01:51:44.307Z,-2.70
2023-03-08T01:54:31.748Z,-2.70
2023-03-08T01:57:36.212Z,-2.70
2023-03-08T02:00:16.892Z,-2.70
2023-03-08T02:02:51.086Z,-2.70
2023-03-08T02:05:19.012Z,-2.70
2023-03-08T02:07:46.568Z,-2.70
2023-03-08T02:10:14.572Z,-2.70
2023-03-08T02:12:42.174Z,-2.60
2023-03-08T02:15:11.476Z,-2.70
2023-03-08T02:17:41.206Z,-2.60
2023-03-08T02:20:24.459Z,-2.70
2023-03-08T02:22:53.475Z,-2.60
2023-03-08T02:25:23.905Z,-2.70
2023-03-08T02:27:53.527Z,-2.70
2023-03-08T02:30:26.354Z,-2.70
2023-03-08T02:32:53.510Z,-2.70
2023-03-08T02:35:20.725Z,-2.70
2023-03-08T02:37:48.138Z,-2.70
2023-03-08T02:40:15.607Z,-2.70
2023-03-08T02:42:42.980Z,-2.70
2023-03-08T02:45:10.881Z,-2.70
2023-03-08T02:47:38.439Z,-2.70
2023-03-08T02:50:07.062Z,-2.70
2023-03-08T02:52:34.582Z,-2.70
2023-03-08T02:55:02.082Z,-2.70
2023-03-08T02:57:29.163Z,-2.60
2023-03-08T02:59:56.244Z,-2.70
2023-03-08T03:02:23.323Z,-2.60
2023-03-08T03:04:50.637Z,-2.80
2023-03-08T03:07:17.722Z,-2.80
2023-03-08T03:09:45.059Z,-2.80
2023-03-08T03:12:12.406Z,-2.80
2023-03-08T03:14:39.579Z,-2.80
2023-03-08T03:17:06.962Z,-2.80
2023-03-08T03:19:34.113Z,-2.90
2023-03-08T03:22:01.553Z,-2.90
2023-03-08T03:24:28.971Z,-2.90
2023-03-08T03:26:56.116Z,-2.90
2023-03-08T03:29:23.515Z,-2.90
2023-03-08T03:31:50.629Z,-2.80
2023-03-08T03:34:17.788Z,-2.80
2023-03-08T03:36:44.899Z,-2.80
2023-03-08T03:39:12.085Z,-2.80
2023-03-08T03:41:39.370Z,-2.80
2023-03-08T03:44:06.543Z,-2.80
2023-03-08T03:46:33.719Z,-2.80
2023-03-08T03:49:01.192Z,-2.80
2023-03-08T03:51:28.275Z,-2.90
2023-03-08T03:53:55.667Z,-2.90
2023-03-08T03:56:26.406Z,-2.80
2023-03-08T03:58:54.350Z,-2.80
2023-03-08T04:01:27.841Z,-2.90
2023-03-08T04:03:56.233Z,-2.90
2023-03-08T04:06:32.234Z,-2.90
2023-03-08T04:09:05.965Z,-2.90
2023-03-08T04:11:36.577Z,-2.90
2023-03-08T04:14:04.623Z,-2.80
2023-03-08T04:16:34.502Z,-2.80
2023-03-08T04:19:05.018Z,-2.90
2023-03-08T04:21:33.112Z,-2.80
2023-03-08T04:24:01.090Z,-2.80
2023-03-08T04:26:28.806Z,-2.80
2023-03-08T04:28:56.321Z,-2.90
2023-03-08T04:31:29.406Z,-2.90
2023-03-08T04:33:58.481Z,-2.90
2023-03-08T04:36:26.138Z,-2.90
2023-03-08T04:38:53.495Z,-2.80
2023-03-08T04:41:21.079Z,-2.80
2023-03-08T04:43:55.346Z,-2.90
2023-03-08T04:46:27.848Z,-2.80
2023-03-08T04:48:56.157Z,-2.90
2023-03-08T04:51:25.726Z,-2.90
2023-03-08T04:53:53.278Z,-2.90
2023-03-08T04:56:20.519Z,-3.00
2023-03-08T04:58:48.072Z,-3.00
2023-03-08T05:01:18.034Z,-3.00
2023-03-08T05:03:45.838Z,-3.00
2023-03-08T05:06:14.384Z,-3.00
2023-03-08T05:08:42.021Z,-3.10
2023-03-08T05:11:09.691Z,-3.10
2023-03-08T05:13:39.418Z,-3.00
2023-03-08T05:16:08.295Z,-3.10
2023-03-08T05:18:36.009Z,-3.10
2023-03-08T05:21:07.041Z,-3.10
2023-03-08T05:23:34.659Z,-3.00
2023-03-08T05:26:04.231Z,-3.10
2023-03-08T05:28:34.065Z,-3.00
2023-03-08T05:31:21.867Z,-3.00
2023-03-08T05:33:51.675Z,-3.10
2023-03-08T05:36:19.983Z,-3.10
2023-03-08T05:38:48.230Z,-3.10
2023-03-08T05:41:17.047Z,-3.10
2023-03-08T05:43:44.425Z,-3.10
2023-03-08T05:46:16.660Z,-3.20
2023-03-08T05:48:44.027Z,-3.10
2023-03-08T05:51:14.371Z,-3.20
2023-03-08T05:53:42.182Z,-3.10
2023-03-08T05:56:18.083Z,-3.20
2023-03-08T05:58:47.972Z,-3.20
2023-03-08T06:01:21.554Z,-3.20
2023-03-08T06:03:51.291Z,-3.10
2023-03-08T06:06:20.164Z,-3.20
2023-03-08T06:08:47.259Z,-3.10
2023-03-08T06:11:14.992Z,-3.10
2023-03-08T06:13:42.334Z,-3.20
2023-03-08T06:16:10.469Z,-3.20
2023-03-08T06:18:40.314Z,-3.20
2023-03-08T06:21:17.987Z,-3.20
2023-03-08T06:23:45.957Z,-3.10
2023-03-08T06:26:14.042Z,-3.10
2023-03-08T06:28:42.329Z,-3.10
2023-03-08T06:31:13.386Z,-3.10
2023-03-08T06:33:40.961Z,-3.20
2023-03-08T06:36:12.448Z,-3.10
2023-03-08T06:38:41.131Z,-3.10
2023-03-08T06:41:10.433Z,-3.10
2023-03-08T06:43:37.967Z,-3.20
2023-03-08T06:46:06.825Z,-3.10
2023-03-08T06:48:37.307Z,-3.10
2023-03-08T06:51:05.839Z,-3.10
2023-03-08T06:53:33.543Z,-3.10
2023-03-08T06:56:03.335Z,-3.10
2023-03-08T06:58:31.713Z,-3.10
2023-03-08T07:01:01.693Z,-3.00
2023-03-08T07:03:28.889Z,-3.00
2023-03-08T07:06:07.627Z,-3.00
2023-03-08T07:08:36.393Z,-3.00
2023-03-08T07:11:04.674Z,-3.10
2023-03-08T07:13:31.834Z,-3.10
2023-03-08T07:15:58.987Z,-3.10
2023-03-08T07:18:26.537Z,-3.20
2023-03-08T07:20:58.008Z,-3.20
2023-03-08T07:23:25.844Z,-3.20
2023-03-08T07:25:53.203Z,-3.10
2023-03-08T07:28:20.571Z,-3.10
2023-03-08T07:30:49.344Z,-3.10
2023-03-08T07:33:17.302Z,-3.10
2023-03-08T07:35:44.678Z,-3.10
2023-03-08T07:38:15.806Z,-3.00
2023-03-08T07:40:43.274Z,-2.90
2023-03-08T07:43:11.163Z,-3.10
2023-03-08T07:45:42.534Z,-3.10
2023-03-08T07:48:09.634Z,-3.00
2023-03-08T07:50:37.356Z,-3.10
2023-03-08T07:53:04.894Z,-3.00
2023-03-08T07:55:32.277Z,-2.90
2023-03-08T07:57:59.427Z,-2.90
2023-03-08T08:00:26.953Z,-3.00
2023-03-08T08:02:54.332Z,-3.00
2023-03-08T08:05:22.326Z,-2.90
2023-03-08T08:07:49.862Z,-2.90
2023-03-08T08:10:18.083Z,-2.90
2023-03-08T08:12:45.628Z,-2.90
2023-03-08T08:15:13.088Z,-2.80
2023-03-08T08:17:40.424Z,-2.80
2023-03-08T08:20:08.385Z,-2.80
2023-03-08T08:22:36.924Z,-2.90
2023-03-08T08:25:08.377Z,-2.80
2023-03-08T08:27:36.312Z,-2.80
2023-03-08T08:30:05.495Z,-2.90
2023-03-08T08:32:35.384Z,-2.90
2023-03-08T08:35:02.703Z,-2.80
2023-03-08T08:37:31.846Z,-3.00
2023-03-08T08:39:59.406Z,-2.80
2023-03-08T08:42:27.322Z,-2.70
2023-03-08T08:44:55.255Z,-2.90
2023-03-08T08:47:22.849Z,-2.80
2023-03-08T08:49:50.258Z,-2.90
2023-03-08T08:52:17.722Z,-2.90
2023-03-08T08:54:45.239Z,-2.80
2023-03-08T08:57:12.662Z,-2.70
2023-03-08T08:59:40.041Z,-2.80
2023-03-08T09:02:10.461Z,-2.80
2023-03-08T09:04:37.869Z,-2.80
2023-03-08T09:07:07.343Z,-2.70
2023-03-08T09:09:34.708Z,-2.80
2023-03-08T09:12:02.102Z,-2.70
2023-03-08T09:14:29.919Z,-2.70
2023-03-08T09:16:57.538Z,-2.60
2023-03-08T09:19:24.966Z,-2.60
2023-03-08T09:21:52.369Z,-2.50
2023-03-08T09:24:19.485Z,-2.50
2023-03-08T09:26:46.869Z,-2.60
2023-03-08T09:29:14.017Z,-2.60
2023-03-08T09:31:42.689Z,-2.50
2023-03-08T09:34:15.684Z,-2.50
2023-03-08T09:36:43.369Z,-2.40
2023-03-08T09:39:13.167Z,-2.40
2023-03-08T09:42:00.974Z,-2.40
2023-03-08T09:45:02.852Z,-2.40
2023-03-08T09:47:43.339Z,-2.40
2023-03-08T09:50:13.740Z,-2.30
2023-03-08T09:53:00.983Z,-2.20
2023-03-08T09:55:32.757Z,-2.30
2023-03-08T09:58:11.996Z,-2.30
2023-03-08T10:00:39.157Z,-2.20
2023-03-08T10:03:28.333Z,-2.20
2023-03-08T10:06:27.220Z,-2.20
2023-03-08T10:09:15.074Z,-2.10
2023-03-08T10:12:01.833Z,-2.00
2023-03-08T10:14:36.145Z,-1.90
2023-03-08T10:17:16.742Z,-1.80
2023-03-08T10:19:53.130Z,-1.90
2023-03-08T10:22:28.813Z,-2.00
2023-03-08T10:25:24.407Z,-2.20
2023-03-08T10:27:55.167Z,-2.20
2023-03-08T10:30:29.050Z,-2.10
2023-03-08T10:33:00.098Z,-2.20
2023-03-08T10:35:34.827Z,-1.90
2023-03-08T10:38:02.540Z,-1.90
2023-03-08T10:40:29.965Z,-1.80
2023-03-08T10:43:05.663Z,-1.90
2023-03-08T10:45:33.803Z,-1.80
2023-03-08T10:48:05.976Z,-1.70
2023-03-08T10:50:36.643Z,-1.90
2023-03-08T10:53:16.008Z,-2.10
2023-03-08T10:55:47.600Z,-2.10
2023-03-08T10:58:35.097Z,-1.90
2023-03-08T11:01:05.593Z,-1.70
2023-03-08T11:03:33.968Z,-1.80
2023-03-08T11:06:12.715Z,-1.80
2023-03-08T11:09:01.520Z,-1.90
2023-03-08T11:11:29.036Z,-2.00
2023-03-08T11:13:56.963Z,-1.80
2023-03-08T11:16:52.265Z,-2.00
2023-03-08T11:19:31.589Z,-1.80
2023-03-08T11:22:21.445Z,-1.80
2023-03-08T11:25:15.026Z,-1.70
2023-03-08T11:28:00.315Z,-1.70
2023-03-08T11:30:45.931Z,-1.60
2023-03-08T11:33:32.925Z,-1.90
2023-03-08T11:36:21.062Z,-1.80
2023-03-08T11:39:02.008Z,-1.70
2023-03-08T11:41:37.444Z,-1.70
2023-03-08T11:44:42.631Z,-1.60
2023-03-08T11:47:30.934Z,-1.70
2023-03-08T11:50:16.267Z,-1.40
2023-03-08T11:53:05.860Z,-1.40
2023-03-08T11:56:02.850Z,-1.00
2023-03-08T11:58:41.799Z,-1.20
2023-03-08T12:01:27.974Z,-1.10
2023-03-08T12:04:03.279Z,-0.90
2023-03-08T12:06:43.870Z,-0.90
2023-03-08T12:09:28.325Z,-1.00
2023-03-08T12:12:36.272Z,-1.10
2023-03-08T12:15:19.813Z,-0.80
2023-03-08T12:17:53.821Z,-0.90
2023-03-08T12:20:22.440Z,-1.30
2023-03-08T12:22:58.261Z,-1.10
2023-03-08T12:25:33.882Z,-1.10
2023-03-08T12:28:25.548Z,-1.00
2023-03-08T12:31:26.610Z,-1.00
2023-03-08T12:33:57.496Z,-1.00
2023-03-08T12:36:41.526Z,-1.20
2023-03-08T12:39:26.862Z,-1.30
2023-03-08T12:42:29.033Z,-1.40
2023-03-08T12:45:10.434Z,-1.10
2023-03-08T12:47:37.852Z,-0.90
2023-03-08T12:50:15.673Z,-1.00
2023-03-08T12:52:43.426Z,-1.20
2023-03-08T12:55:31.443Z,-1.20
2023-03-08T12:58:01.952Z,-1.20
2023-03-08T13:00:39.437Z,-1.20
2023-03-08T13:03:12.871Z,-1.10
2023-03-08T13:05:45.822Z,-1.20
2023-03-08T13:08:13.156Z,-1.10
2023-03-08T13:10:52.415Z,-1.00
2023-03-08T13:13:46.131Z,-1.00
2023-03-08T13:16:39.404Z,-1.20
2023-03-08T13:19:15.579Z,-1.30
2023-03-08T13:21:51.959Z,-1.50
2023-03-08T13:24:58.388Z,-1.40
2023-03-08T13:28:00.747Z,-1.40
2023-03-08T13:30:58.004Z,-1.40
2023-03-08T13:33:26.643Z,-1.20
2023-03-08T13:36:06.274Z,-1.10
2023-03-08T13:38:36.459Z,-1.10
2023-03-08T13:41:03.971Z,-1.00
2023-03-08T13:43:33.371Z,-1.00
2023-03-08T13:46:10.616Z,-1.10
2023-03-08T13:48:38.025Z,-1.00
2023-03-08T13:51:05.547Z,-1.30
2023-03-08T13:53:36.278Z,-1.00
2023-03-08T13:56:06.172Z,-1.20
2023-03-08T13:58:41.734Z,-1.20
2023-03-08T14:01:22.551Z,-1.20
2023-03-08T14:03:51.748Z,-1.20
2023-03-08T14:06:29.887Z,-1.20
2023-03-08T14:09:00.609Z,-1.30
2023-03-08T14:11:33.782Z,-1.50
2023-03-08T14:14:04.886Z,-1.60
2023-03-08T14:16:32.122Z,-1.90
2023-03-08T14:19:22.991Z,-2.00
2023-03-08T14:21:56.958Z,-1.90
2023-03-08T14:24:34.595Z,-2.00
2023-03-08T14:27:24.295Z,-1.90
2023-03-08T14:30:21.824Z,-1.80
2023-03-08T14:33:18.919Z,-1.80
2023-03-08T14:35:55.680Z,-1.70
2023-03-08T14:38:32.139Z,-1.80
2023-03-08T14:41:04.176Z,-1.80
2023-03-08T14:43:31.361Z,-1.70
2023-03-08T14:46:05.075Z,-1.70
2023-03-08T14:48:34.354Z,-1.50
2023-03-08T14:51:07.067Z,-1.50
2023-03-08T14:53:41.854Z,-1.70
2023-03-08T14:56:15.093Z,-1.60
2023-03-08T14:58:44.786Z,-1.80
2023-03-08T15:01:11.903Z,-2.00
2023-03-08T15:03:39.376Z,-1.90
2023-03-08T15:06:16.215Z,-2.00
2023-03-08T15:08:43.774Z,-2.00
2023-03-08T15:11:10.992Z,-1.80
2023-03-08T15:13:38.408Z,-1.90
2023-03-08T15:16:07.737Z,-1.90
2023-03-08T15:18:35.267Z,-1.90
2023-03-08T15:21:03.097Z,-2.00
2023-03-08T15:23:37.582Z,-2.10
2023-03-08T15:26:06.476Z,-2.10
2023-03-08T15:28:34.616Z,-2.20
2023-03-08T15:31:01.885Z,-2.20
2023-03-08T15:33:29.244Z,-2.10
2023-03-08T15:35:58.198Z,-2.00
2023-03-08T15:38:25.733Z,-2.00
2023-03-08T15:40:53.140Z,-2.30
2023-03-08T15:43:20.242Z,-2.30
2023-03-08T15:45:47.611Z,-2.30
2023-03-08T15:48:17.789Z,-2.20
2023-03-08T15:50:45.802Z,-2.20
2023-03-08T15:53:23.075Z,-2.10
2023-03-08T15:55:56.680Z,-2.30
2023-03-08T15:58:24.049Z,-2.40
2023-03-08T16:00:52.306Z,-2.40
2023-03-08T16:03:26.155Z,-2.30
2023-03-08T16:05:53.276Z,-2.30
2023-03-08T16:08:23.839Z,-2.40
2023-03-08T16:10:51.894Z,-2.40
2023-03-08T16:13:22.132Z,-2.50
2023-03-08T16:15:49.711Z,-2.50
2023-03-08T16:18:17.125Z,-2.40
2023-03-08T16:20:46.380Z,-2.50
2023-03-08T16:23:13.603Z,-2.50
2023-03-08T16:25:43.457Z,-2.60
2023-03-08T16:28:11.387Z,-2.50
2023-03-08T16:30:40.771Z,-2.50
2023-03-08T16:33:07.932Z,-2.50
2023-03-08T16:35:35.033Z,-2.50
2023-03-08T16:38:02.786Z,-2.50
2023-03-08T16:40:31.338Z,-2.50
2023-03-08T16:42:58.730Z,-2.60
2023-03-08T16:45:25.986Z,-2.50
2023-03-08T16:47:53.914Z,-2.60
2023-03-08T16:50:21.315Z,-2.60
2023-03-08T16:52:48.493Z,-2.60
2023-03-08T16:55:15.736Z,-2.80
2023-03-08T16:57:43.085Z,-2.80
2023-03-08T17:00:12.779Z,-2.80
2023-03-08T17:02:40.704Z,-2.90
2023-03-08T17:05:11.154Z,-2.90
2023-03-08T17:07:38.756Z,-2.90
2023-03-08T17:10:06.881Z,-2.90
2023-03-08T17:12:33.997Z,-2.90
2023-03-08T17:15:01.158Z,-2.90
2023-03-08T17:17:28.514Z,-2.90
2023-03-08T17:19:55.644Z,-3.00
2023-03-08T17:22:22.989Z,-3.00
2023-03-08T17:24:50.224Z,-2.90
2023-03-08T17:27:17.354Z,-3.00
2023-03-08T17:29:44.740Z,-3.10
2023-03-08T17:32:12.054Z,-3.20
2023-03-08T17:34:39.215Z,-3.20
2023-03-08T17:37:12.263Z,-3.20
2023-03-08T17:39:40.068Z,-3.20
2023-03-08T17:42:08.315Z,-3.30
2023-03-08T17:44:35.402Z,-3.30
2023-03-08T17:47:02.513Z,-3.30
2023-03-08T17:49:29.621Z,-3.20
2023-03-08T17:51:57.200Z,-3.30
2023-03-08T17:54:25.522Z,-3.30
2023-03-08T17:56:52.905Z,-3.30
2023-03-08T17:59:22.259Z,-3.40
2023-03-08T18:01:50.149Z,-3.40
2023-03-08T18:04:19.955Z,-3.50
2023-03-08T18:06:47.508Z,-3.50
2023-03-08T18:09:16.604Z,-3.50
2023-03-08T18:11:43.868Z,-3.40
2023-03-08T18:14:15.030Z,-3.50
2023-03-08T18:16:44.792Z,-3.50
2023-03-08T18:19:12.107Z,-3.60
2023-03-08T18:21:41.316Z,-3.60
2023-03-08T18:24:12.252Z,-3.60
2023-03-08T18:26:39.438Z,-3.60
2023-03-08T18:29:06.911Z,-3.60
2023-03-08T18:31:37.310Z,-3.60
2023-03-08T18:34:05.435Z,-3.50
2023-03-08T18:36:35.094Z,-3.50
2023-03-08T18:39:12.326Z,-3.60
2023-03-08T18:41:39.905Z,-3.50
2023-03-08T18:44:07.199Z,-3.50
2023-03-08T18:46:34.854Z,-3.40
2023-03-08T18:49:07.137Z,-3.40
2023-03-08T18:51:36.658Z,-3.30
2023-03-08T18:54:06.924Z,-3.40
2023-03-08T18:56:36.011Z,-3.40
2023-03-08T18:59:06.024Z,-3.40
2023-03-08T19:01:33.656Z,-3.50
2023-03-08T19:04:04.205Z,-3.40
2023-03-08T19:06:31.418Z,-3.40
2023-03-08T19:08:58.784Z,-3.40
2023-03-08T19:11:27.979Z,-3.30
2023-03-08T19:13:55.943Z,-3.30
2023-03-08T19:16:25.722Z,-3.30
2023-03-08T19:18:55.993Z,-3.30
2023-03-08T19:21:29.018Z,-3.20
2023-03-08T19:23:56.470Z,-3.20
2023-03-08T19:26:36.255Z,-3.30
2023-03-08T19:29:07.165Z,-3.30
2023-03-08T19:31:36.771Z,-3.20
2023-03-08T19:34:07.637Z,-3.20
2023-03-08T19:36:39.582Z,-3.20
2023-03-08T19:39:10.656Z,-3.10
2023-03-08T19:41:38.239Z,-3.20
2023-03-08T19:44:08.020Z,-3.20
2023-03-08T19:46:37.543Z,-3.10
2023-03-08T19:49:09.323Z,-3.20
2023-03-08T19:51:40.272Z,-3.20
2023-03-08T19:54:11.814Z,-3.10
2023-03-08T19:56:46.334Z,-3.10
2023-03-08T19:59:18.186Z,-3.20
2023-03-08T20:01:50.403Z,-3.20
2023-03-08T20:04:18.961Z,-3.20
2023-03-08T20:06:50.321Z,-3.30
2023-03-08T20:09:24.041Z,-3.40
2023-03-08T20:11:57.342Z,-3.40
2023-03-08T20:14:28.512Z,-3.30
2023-03-08T20:16:57.486Z,-3.40
2023-03-08T20:19:25.292Z,-3.40
2023-03-08T20:21:53.048Z,-3.40
2023-03-08T20:24:20.797Z,-3.40
2023-03-08T20:26:47.980Z,-3.30
2023-03-08T20:29:15.668Z,-3.30
2023-03-08T20:31:44.326Z,-3.30
2023-03-08T20:34:11.428Z,-3.30
2023-03-08T20:36:38.517Z,-3.40
2023-03-08T20:39:05.900Z,-3.30
2023-03-08T20:41:33.121Z,-3.40
2023-03-08T20:44:00.378Z,-3.40
2023-03-08T20:46:33.452Z,-3.40
2023-03-08T20:49:01.811Z,-3.40
2023-03-08T20:51:29.034Z,-3.50
2023-03-08T20:53:57.064Z,-3.30
2023-03-08T20:56:26.365Z,-3.40
2023-03-08T20:58:56.795Z,-3.40
2023-03-08T21:01:27.970Z,-3.40
2023-03-08T21:03:55.161Z,-3.50
2023-03-08T21:06:28.716Z,-3.50
2023-03-08T21:08:57.054Z,-3.60
2023-03-08T21:11:24.214Z,-3.50
2023-03-08T21:13:53.262Z,-3.50
2023-03-08T21:16:23.208Z,-3.60
2023-03-08T21:18:51.892Z,-3.50
2023-03-08T21:21:25.237Z,-3.40
2023-03-08T21:23:54.510Z,-3.50
2023-03-08T21:26:24.474Z,-3.60
2023-03-08T21:28:57.523Z,-3.60
2023-03-08T21:31:24.847Z,-3.50
2023-03-08T21:33:53.634Z,-3.50
2023-03-08T21:36:21.194Z,-3.50
2023-03-08T21:38:53.495Z,-3.50
2023-03-08T21:41:31.843Z,-3.50
2023-03-08T21:44:01.033Z,-3.60
2023-03-08T21:46:28.376Z,-3.50
2023-03-08T21:48:56.872Z,-3.60
2023-03-08T21:51:24.853Z,-3.70
2023-03-08T21:53:51.930Z,-3.70
2023-03-08T21:56:19.794Z,-3.70
2023-03-08T21:58:46.928Z,-3.70
2023-03-08T22:01:23.126Z,-3.80
2023-03-08T22:03:50.835Z,-3.90
2023-03-08T22:06:18.657Z,-3.80
2023-03-08T22:08:45.915Z,-3.90
2023-03-08T22:11:13.771Z,-4.00
2023-03-08T22:13:41.086Z,-4.00
2023-03-08T22:16:08.872Z,-3.90
2023-03-08T22:18:36.026Z,-4.00
2023-03-08T22:21:03.186Z,-4.10
2023-03-08T22:23:31.754Z,-4.00
2023-03-08T22:25:58.889Z,-4.20
2023-03-08T22:28:26.056Z,-4.40
2023-03-08T22:30:53.277Z,-4.40
2023-03-08T22:33:20.346Z,-4.60
2023-03-08T22:35:48.057Z,-4.70
2023-03-08T22:38:18.312Z,-4.80
2023-03-08T22:40:45.609Z,-5.00
2023-03-08T22:43:12.704Z,-5.10
2023-03-08T22:45:39.885Z,-5.20
2023-03-08T22:48:07.153Z,-5.30
2023-03-08T22:50:34.282Z,-5.40
2023-03-08T22:53:01.764Z,-5.40
2023-03-08T22:55:29.036Z,-5.50
2023-03-08T22:57:56.090Z,-5.60
2023-03-08T23:00:23.342Z,-5.60
2023-03-08T23:02:50.652Z,-5.60
2023-03-08T23:05:20.175Z,-5.60
2023-03-08T23:07:47.957Z,-5.50
2023-03-08T23:10:16.491Z,-5.50
2023-03-08T23:12:43.587Z,-5.40
2023-03-08T23:15:11.151Z,-5.50
2023-03-08T23:17:38.367Z,-5.60
2023-03-08T23:20:06.249Z,-5.50
2023-03-08T23:22:33.843Z,-5.70
2023-03-08T23:25:01.059Z,-5.70
2023-03-08T23:27:28.224Z,-5.80
2023-03-08T23:29:55.279Z,-5.90
2023-03-08T23:32:22.427Z,-6.00
2023-03-08T23:34:49.453Z,-6.00
2023-03-08T23:37:16.488Z,-6.20
2023-03-08T23:39:43.550Z,-6.30
2023-03-08T23:42:10.736Z,-6.40
2023-03-08T23:44:38.369Z,-6.60
2023-03-08T23:47:05.716Z,-6.70
2023-03-08T23:49:32.838Z,-6.60
2023-03-08T23:51:59.920Z,-6.60
2023-03-08T23:54:27.154Z,-6.60
2023-03-08T23:56:54.302Z,-6.60
2023-03-08T23:59:22.783Z,-6.70
